PWSweather.com
Personal Weather Stations
Station Observations
IHTIMAN1
Neighbourhood 1, IhtimanBG 2050

Neighbourhood 1IhtimanBG 2050

Lat: 42.436852, Lon: 23.817921

Elevation: 2066

Station Type: Oregon Scientific WMR968

http://ihtiman-meteo.com

High Low Average
Temperature 59.2°F15.1°C 51.1°F10.6°C 54.1°F12.3°C
Dew Point 54.5°F12.5°C 47.1°F8.4°C 51.0°F10.6°C
Winds 10.4 mph 16.7 kmh Calm Calm 6.0 mph SE9.7 kmh SE
Wind Gusts 15.0 mph24.1 kmh -- 9.0 mph14.5 kmh
Humidity 98% 72% 90%
Pressure 29.97 in1014.9 mb 29.80 in1009.1 mb -
Precipitation 0.00 in0.0 mm - -
Hour Temp Dew Point Humidity Winds Wind Gusts Pressure Precip Precip Rate Daily Precip Total
12:00 AM 52.2°F11.2°C 48.4°F9.1°C 87% 6.9 mph SE11.1 kmh SE 5.8 mph9.3 kmh 29.97 in1014.9 mb - 0.00 in0.0 mm 0.00 in0.0 mm
12:10 AM 52.3°F11.3°C 48.9°F9.4°C 88% 5.8 mph S9.3 kmh S 8.1 mph13.0 kmh 29.97 in1014.9 mb - 0.00 in0.0 mm 0.00 in0.0 mm
12:20 AM 52.3°F11.3°C 49.2°F9.6°C 89% 5.8 mph ESE9.3 kmh ESE 8.1 mph13.0 kmh 29.97 in1014.9 mb - 0.00 in0.0 mm 0.00 in0.0 mm
12:30 AM 52.3°F11.3°C 49.8°F9.9°C 91% 5.8 mph SE9.3 kmh SE 8.1 mph13.0 kmh 29.97 in1014.9 mb - 0.00 in0.0 mm 0.00 in0.0 mm
12:40 AM 52.3°F11.3°C 50.1°F10.1°C 92% 6.9 mph SSE11.1 kmh SSE 9.2 mph14.8 kmh 29.97 in1014.9 mb - 0.00 in0.0 mm 0.00 in0.0 mm
12:50 AM 52.2°F11.2°C 50.2°F10.1°C 93% 5.8 mph E9.3 kmh E 10.4 mph16.7 kmh 29.97 in1014.9 mb - 0.00 in0.0 mm 0.00 in0.0 mm
01:00 AM 52.2°F11.2°C 50.2°F10.1°C 93% 4.6 mph ESE7.4 kmh ESE 5.8 mph9.3 kmh 29.97 in1014.9 mb - 0.00 in0.0 mm 0.00 in0.0 mm
01:10 AM 52.2°F11.2°C 50.5°F10.3°C 94% 8.1 mph ESE13.0 kmh ESE 11.5 mph18.5 kmh 29.97 in1014.9 mb - 0.00 in0.0 mm 0.00 in0.0 mm
01:20 AM 52.0°F11.1°C 50.6°F10.3°C 95% 6.9 mph SE11.1 kmh SE 8.1 mph13.0 kmh 29.94 in1013.9 mb - 0.00 in0.0 mm 0.00 in0.0 mm
01:30 AM 52.0°F11.1°C 50.9°F10.5°C 96% 5.8 mph ESE9.3 kmh ESE 9.2 mph14.8 kmh 29.94 in1013.9 mb - 0.00 in0.0 mm 0.00 in0.0 mm
01:40 AM 52.0°F11.1°C 51.2°F10.7°C 97% 4.6 mph SE7.4 kmh SE 5.8 mph9.3 kmh 29.94 in1013.9 mb - 0.00 in0.0 mm 0.00 in0.0 mm
01:50 AM 52.0°F11.1°C 51.4°F10.8°C 98% 3.5 mph SE5.6 kmh SE 3.5 mph5.6 kmh 29.94 in1013.9 mb - 0.00 in0.0 mm 0.00 in0.0 mm
02:00 AM 51.9°F11.1°C 51.3°F10.7°C 98% 3.5 mph ESE5.6 kmh ESE 5.8 mph9.3 kmh 29.91 in1012.9 mb - 0.00 in0.0 mm 0.00 in0.0 mm
02:10 AM 51.8°F11.0°C 51.3°F10.7°C 98% 3.5 mph SE5.6 kmh SE 5.8 mph9.3 kmh 29.91 in1012.9 mb - 0.00 in0.0 mm 0.00 in0.0 mm
02:20 AM 51.9°F11.1°C 51.3°F10.7°C 98% 3.5 mph SE5.6 kmh SE 5.8 mph9.3 kmh 29.94 in1013.9 mb - 0.00 in0.0 mm 0.00 in0.0 mm
02:30 AM 52.0°F11.1°C 51.4°F10.8°C 98% 4.6 mph ESE7.4 kmh ESE 8.1 mph13.0 kmh 29.94 in1013.9 mb - 0.00 in0.0 mm 0.00 in0.0 mm
02:40 AM 52.0°F11.1°C 51.4°F10.8°C 98% 5.8 mph SE9.3 kmh SE 5.8 mph9.3 kmh 29.94 in1013.9 mb - 0.00 in0.0 mm 0.00 in0.0 mm
02:50 AM 51.8°F11.0°C 51.3°F10.7°C 98% 6.9 mph SE11.1 kmh SE 11.5 mph18.5 kmh 29.91 in1012.9 mb - 0.00 in0.0 mm 0.00 in0.0 mm
03:00 AM 51.8°F11.0°C 51.2°F10.7°C 98% 5.8 mph SE9.3 kmh SE 8.1 mph13.0 kmh 29.94 in1013.9 mb - 0.00 in0.0 mm 0.00 in0.0 mm
03:10 AM 51.6°F10.9°C 51.1°F10.6°C 98% 8.1 mph SE13.0 kmh SE 10.4 mph16.7 kmh 29.94 in1013.9 mb - 0.00 in0.0 mm 0.00 in0.0 mm
03:20 AM 51.6°F10.9°C 51.1°F10.6°C 98% 4.6 mph SE7.4 kmh SE 3.5 mph5.6 kmh 29.94 in1013.9 mb - 0.00 in0.0 mm 0.00 in0.0 mm
03:30 AM 51.6°F10.9°C 51.1°F10.6°C 98% 3.5 mph E5.6 kmh E 5.8 mph9.3 kmh 29.91 in1012.9 mb - 0.00 in0.0 mm 0.00 in0.0 mm
03:40 AM 51.6°F10.9°C 51.1°F10.6°C 98% 5.8 mph SE9.3 kmh SE 6.9 mph11.1 kmh 29.91 in1012.9 mb - 0.00 in0.0 mm 0.00 in0.0 mm
03:50 AM 51.6°F10.9°C 51.1°F10.6°C 98% 3.5 mph SE5.6 kmh SE 8.1 mph13.0 kmh 29.91 in1012.9 mb - 0.00 in0.0 mm 0.00 in0.0 mm
04:00 AM 51.6°F10.9°C 51.1°F10.6°C 98% 4.6 mph ESE7.4 kmh ESE 5.8 mph9.3 kmh 29.94 in1013.9 mb - 0.00 in0.0 mm 0.00 in0.0 mm
04:10 AM 51.6°F10.9°C 51.1°F10.6°C 98% 9.2 mph SE14.8 kmh SE 11.5 mph18.5 kmh 29.94 in1013.9 mb - 0.00 in0.0 mm 0.00 in0.0 mm
04:20 AM 51.6°F10.9°C 51.1°F10.6°C 98% 6.9 mph SE11.1 kmh SE 8.1 mph13.0 kmh 29.91 in1012.9 mb - 0.00 in0.0 mm 0.00 in0.0 mm
04:30 AM 51.8°F11.0°C 51.2°F10.7°C 98% 5.8 mph SE9.3 kmh SE 8.1 mph13.0 kmh 29.91 in1012.9 mb - 0.00 in0.0 mm 0.00 in0.0 mm
04:40 AM 51.4°F10.8°C 50.9°F10.5°C 98% 4.6 mph SE7.4 kmh SE 8.1 mph13.0 kmh 29.91 in1012.9 mb - 0.00 in0.0 mm 0.00 in0.0 mm
05:00 AM 51.4°F10.8°C 50.9°F10.5°C 98% 3.5 mph ESE5.6 kmh ESE 4.6 mph7.4 kmh 29.91 in1012.9 mb - 0.00 in0.0 mm 0.00 in0.0 mm
05:10 AM 51.4°F10.8°C 50.9°F10.5°C 98% Calm Calm -- 29.91 in1012.9 mb - 0.00 in0.0 mm 0.00 in0.0 mm
05:20 AM 51.4°F10.8°C 50.9°F10.5°C 98% 5.8 mph SE9.3 kmh SE 10.4 mph16.7 kmh 29.94 in1013.9 mb - 0.00 in0.0 mm 0.00 in0.0 mm
05:30 AM 51.4°F10.8°C 50.9°F10.5°C 98% 4.6 mph SE7.4 kmh SE 9.2 mph14.8 kmh 29.91 in1012.9 mb - 0.00 in0.0 mm 0.00 in0.0 mm
05:40 AM 51.4°F10.8°C 50.9°F10.5°C 98% 2.3 mph SSE3.7 kmh SSE 4.6 mph7.4 kmh 29.91 in1012.9 mb - 0.00 in0.0 mm 0.00 in0.0 mm
05:50 AM 51.4°F10.8°C 50.9°F10.5°C 98% 4.6 mph SE7.4 kmh SE 5.8 mph9.3 kmh 29.94 in1013.9 mb - 0.00 in0.0 mm 0.00 in0.0 mm
06:00 AM 51.4°F10.8°C 50.9°F10.5°C 98% 3.5 mph SE5.6 kmh SE 5.8 mph9.3 kmh 29.91 in1012.9 mb - 0.00 in0.0 mm 0.00 in0.0 mm
06:10 AM 51.4°F10.8°C 50.9°F10.5°C 98% 2.3 mph E3.7 kmh E 5.8 mph9.3 kmh 29.91 in1012.9 mb - 0.00 in0.0 mm 0.00 in0.0 mm
06:20 AM 51.4°F10.8°C 50.9°F10.5°C 98% 2.3 mph ENE3.7 kmh ENE 3.5 mph5.6 kmh 29.94 in1013.9 mb - 0.00 in0.0 mm 0.00 in0.0 mm
06:30 AM 51.4°F10.8°C 50.9°F10.5°C 98% Calm Calm 3.5 mph5.6 kmh 29.91 in1012.9 mb - 0.00 in0.0 mm 0.00 in0.0 mm
06:40 AM 51.1°F10.6°C 50.5°F10.3°C 98% 2.3 mph E3.7 kmh E 4.6 mph7.4 kmh 29.91 in1012.9 mb - 0.00 in0.0 mm 0.00 in0.0 mm
06:50 AM 51.6°F10.9°C 51.1°F10.6°C 98% 5.8 mph ESE9.3 kmh ESE 5.8 mph9.3 kmh 29.91 in1012.9 mb - 0.00 in0.0 mm 0.00 in0.0 mm
07:00 AM 51.6°F10.9°C 51.1°F10.6°C 98% 6.9 mph SE11.1 kmh SE 9.2 mph14.8 kmh 29.91 in1012.9 mb - 0.00 in0.0 mm 0.00 in0.0 mm
07:10 AM 51.6°F10.9°C 51.1°F10.6°C 98% 6.9 mph SE11.1 kmh SE 12.7 mph20.4 kmh 29.91 in1012.9 mb - 0.00 in0.0 mm 0.00 in0.0 mm
07:20 AM 51.6°F10.9°C 51.1°F10.6°C 98% 6.9 mph SE11.1 kmh SE 12.7 mph20.4 kmh 29.91 in1012.9 mb - 0.00 in0.0 mm 0.00 in0.0 mm
07:30 AM 51.6°F10.9°C 51.1°F10.6°C 98% 6.9 mph SSE11.1 kmh SSE 8.1 mph13.0 kmh 29.91 in1012.9 mb - 0.00 in0.0 mm 0.00 in0.0 mm
07:40 AM 51.4°F10.8°C 50.8°F10.4°C 98% 5.8 mph SE9.3 kmh SE 8.1 mph13.0 kmh 29.91 in1012.9 mb - 0.00 in0.0 mm 0.00 in0.0 mm
07:50 AM 51.4°F10.8°C 50.6°F10.3°C 97% 5.8 mph SE9.3 kmh SE 10.4 mph16.7 kmh 29.91 in1012.9 mb - 0.00 in0.0 mm 0.00 in0.0 mm
08:00 AM 52.3°F11.3°C 51.0°F10.6°C 95% 8.1 mph SE13.0 kmh SE 15.0 mph24.1 kmh 29.91 in1012.9 mb - 0.00 in0.0 mm 0.00 in0.0 mm
08:10 AM 53.0°F11.7°C 51.1°F10.6°C 93% 3.5 mph SSE5.6 kmh SSE 5.8 mph9.3 kmh 29.91 in1012.9 mb - 0.00 in0.0 mm 0.00 in0.0 mm
08:20 AM 52.9°F11.6°C 50.1°F10.1°C 90% 5.8 mph SE9.3 kmh SE 10.4 mph16.7 kmh 29.91 in1012.9 mb - 0.00 in0.0 mm 0.00 in0.0 mm
08:30 AM 54.6°F12.6°C 50.8°F10.4°C 87% 6.9 mph S11.1 kmh S 9.2 mph14.8 kmh 29.91 in1012.9 mb - 0.00 in0.0 mm 0.00 in0.0 mm
08:40 AM 55.5°F13.1°C 50.4°F10.2°C 83% 6.9 mph SE11.1 kmh SE 9.2 mph14.8 kmh 29.91 in1012.9 mb - 0.00 in0.0 mm 0.00 in0.0 mm
08:50 AM 55.8°F13.2°C 49.4°F9.7°C 79% 5.8 mph S9.3 kmh S 8.1 mph13.0 kmh 29.91 in1012.9 mb - 0.00 in0.0 mm 0.00 in0.0 mm
09:00 AM 55.2°F12.9°C 48.1°F8.9°C 77% 5.8 mph SSE9.3 kmh SSE 10.4 mph16.7 kmh 29.91 in1012.9 mb - 0.00 in0.0 mm 0.00 in0.0 mm
09:10 AM 54.2°F12.3°C 47.1°F8.4°C 77% 9.2 mph S14.8 kmh S 12.7 mph20.4 kmh 29.91 in1012.9 mb - 0.00 in0.0 mm 0.00 in0.0 mm
09:20 AM 53.7°F12.1°C 47.3°F8.5°C 79% 8.1 mph SSE13.0 kmh SSE 11.5 mph18.5 kmh 29.91 in1012.9 mb - 0.00 in0.0 mm 0.00 in0.0 mm
09:30 AM 54.6°F12.6°C 48.3°F9.1°C 79% 5.8 mph SSE9.3 kmh SSE 8.1 mph13.0 kmh 29.91 in1012.9 mb - 0.00 in0.0 mm 0.00 in0.0 mm
09:40 AM 56.6°F13.7°C 49.5°F9.7°C 77% 3.5 mph SSE5.6 kmh SSE 9.2 mph14.8 kmh 29.91 in1012.9 mb - 0.00 in0.0 mm 0.00 in0.0 mm
09:50 AM 56.7°F13.7°C 48.8°F9.3°C 75% 5.8 mph SE9.3 kmh SE 8.1 mph13.0 kmh 29.91 in1012.9 mb - 0.00 in0.0 mm 0.00 in0.0 mm
10:00 AM 57.9°F14.4°C 50.0°F10.0°C 75% 4.6 mph SE7.4 kmh SE 12.7 mph20.4 kmh 29.91 in1012.9 mb - 0.00 in0.0 mm 0.00 in0.0 mm
10:10 AM 56.4°F13.6°C 48.6°F9.2°C 75% 6.9 mph ESE11.1 kmh ESE 9.2 mph14.8 kmh 29.91 in1012.9 mb - 0.00 in0.0 mm 0.00 in0.0 mm
10:20 AM 56.3°F13.5°C 49.9°F9.9°C 79% 6.9 mph SE11.1 kmh SE 8.1 mph13.0 kmh 29.91 in1012.9 mb - 0.00 in0.0 mm 0.00 in0.0 mm
10:30 AM 58.7°F14.8°C 50.8°F10.4°C 75% 6.9 mph SE11.1 kmh SE 9.2 mph14.8 kmh 29.91 in1012.9 mb - 0.00 in0.0 mm 0.00 in0.0 mm
10:40 AM 57.7°F14.3°C 49.4°F9.7°C 74% 6.9 mph SE11.1 kmh SE 12.7 mph20.4 kmh 29.91 in1012.9 mb - 0.00 in0.0 mm 0.00 in0.0 mm
10:50 AM 57.6°F14.2°C 49.7°F9.8°C 75% 6.9 mph SE11.1 kmh SE 10.4 mph16.7 kmh 29.91 in1012.9 mb - 0.00 in0.0 mm 0.00 in0.0 mm
11:00 AM 58.0°F14.4°C 49.8°F9.9°C 74% 8.1 mph SE13.0 kmh SE 12.7 mph20.4 kmh 29.91 in1012.9 mb - 0.00 in0.0 mm 0.00 in0.0 mm
11:10 AM 58.0°F14.4°C 49.8°F9.9°C 74% 8.1 mph SE13.0 kmh SE 11.5 mph18.5 kmh 29.91 in1012.9 mb - 0.00 in0.0 mm 0.00 in0.0 mm
11:20 AM 59.2°F15.1°C 50.5°F10.3°C 73% 6.9 mph S11.1 kmh S 15.0 mph24.1 kmh 29.91 in1012.9 mb - 0.00 in0.0 mm 0.00 in0.0 mm
11:30 AM 57.2°F14.0°C 48.2°F9.0°C 72% 10.4 mph SSE16.7 kmh SSE 15.0 mph24.1 kmh 29.91 in1012.9 mb - 0.00 in0.0 mm 0.00 in0.0 mm
11:40 AM 55.7°F13.2°C 48.2°F9.0°C 76% 6.9 mph S11.1 kmh S 12.7 mph20.4 kmh 29.91 in1012.9 mb - 0.00 in0.0 mm 0.00 in0.0 mm
11:50 AM 55.0°F12.8°C 48.6°F9.2°C 79% 8.1 mph S13.0 kmh S 9.2 mph14.8 kmh 29.91 in1012.9 mb - 0.00 in0.0 mm 0.00 in0.0 mm
12:00 PM 54.7°F12.6°C 48.6°F9.2°C 80% 4.6 mph SSE7.4 kmh SSE 8.1 mph13.0 kmh 29.91 in1012.9 mb - 0.00 in0.0 mm 0.00 in0.0 mm
12:10 PM 54.1°F12.3°C 48.4°F9.1°C 81% 3.5 mph SSE5.6 kmh SSE 5.8 mph9.3 kmh 29.91 in1012.9 mb - 0.00 in0.0 mm 0.00 in0.0 mm
12:20 PM 54.5°F12.5°C 49.4°F9.7°C 83% 4.6 mph SE7.4 kmh SE 8.1 mph13.0 kmh 29.91 in1012.9 mb - 0.00 in0.0 mm 0.00 in0.0 mm
12:30 PM 54.3°F12.4°C 49.3°F9.6°C 83% 8.1 mph S13.0 kmh S 11.5 mph18.5 kmh 29.91 in1012.9 mb - 0.00 in0.0 mm 0.00 in0.0 mm
12:40 PM 54.2°F12.3°C 49.5°F9.7°C 84% 6.9 mph ESE11.1 kmh ESE 8.1 mph13.0 kmh 29.91 in1012.9 mb - 0.00 in0.0 mm 0.00 in0.0 mm
12:50 PM 53.8°F12.1°C 49.4°F9.7°C 85% 6.9 mph SE11.1 kmh SE 6.9 mph11.1 kmh 29.91 in1012.9 mb - 0.00 in0.0 mm 0.00 in0.0 mm
01:00 PM 54.4°F12.4°C 50.0°F10.0°C 85% 6.9 mph SSE11.1 kmh SSE 8.1 mph13.0 kmh 29.88 in1011.9 mb - 0.00 in0.0 mm 0.00 in0.0 mm
01:10 PM 54.5°F12.5°C 49.8°F9.9°C 84% 4.6 mph SE7.4 kmh SE 8.1 mph13.0 kmh 29.88 in1011.9 mb - 0.00 in0.0 mm 0.00 in0.0 mm
01:20 PM 53.8°F12.1°C 49.1°F9.5°C 84% 8.1 mph SE13.0 kmh SE 12.7 mph20.4 kmh 29.88 in1011.9 mb - 0.00 in0.0 mm 0.00 in0.0 mm
01:30 PM 54.1°F12.3°C 50.0°F10.0°C 86% 6.9 mph SE11.1 kmh SE 9.2 mph14.8 kmh 29.88 in1011.9 mb - 0.00 in0.0 mm 0.00 in0.0 mm
01:40 PM 54.0°F12.2°C 49.9°F9.9°C 86% 5.8 mph SE9.3 kmh SE 5.8 mph9.3 kmh 29.88 in1011.9 mb - 0.00 in0.0 mm 0.00 in0.0 mm
01:50 PM 55.0°F12.8°C 50.6°F10.3°C 85% 6.9 mph SE11.1 kmh SE 8.1 mph13.0 kmh 29.88 in1011.9 mb - 0.00 in0.0 mm 0.00 in0.0 mm
02:00 PM 55.2°F12.9°C 49.8°F9.9°C 82% 6.9 mph ESE11.1 kmh ESE 10.4 mph16.7 kmh 29.88 in1011.9 mb - 0.00 in0.0 mm 0.00 in0.0 mm
02:10 PM 55.8°F13.2°C 49.7°F9.8°C 80% 5.8 mph SSE9.3 kmh SSE 10.4 mph16.7 kmh 29.88 in1011.9 mb - 0.00 in0.0 mm 0.00 in0.0 mm
02:20 PM 55.6°F13.1°C 48.9°F9.4°C 78% 5.8 mph SE9.3 kmh SE 8.1 mph13.0 kmh 29.88 in1011.9 mb - 0.00 in0.0 mm 0.00 in0.0 mm
02:30 PM 55.6°F13.1°C 48.9°F9.4°C 78% 6.9 mph SSE11.1 kmh SSE 10.4 mph16.7 kmh 29.88 in1011.9 mb - 0.00 in0.0 mm 0.00 in0.0 mm
02:40 PM 55.9°F13.3°C 49.2°F9.6°C 78% 5.8 mph SSE9.3 kmh SSE 5.8 mph9.3 kmh 29.88 in1011.9 mb - 0.00 in0.0 mm 0.00 in0.0 mm
02:50 PM 56.3°F13.5°C 49.2°F9.6°C 77% 4.6 mph S7.4 kmh S 6.9 mph11.1 kmh 29.86 in1011.2 mb - 0.00 in0.0 mm 0.00 in0.0 mm
03:00 PM 55.3°F12.9°C 48.6°F9.2°C 78% 6.9 mph SE11.1 kmh SE 11.5 mph18.5 kmh 29.86 in1011.2 mb - 0.00 in0.0 mm 0.00 in0.0 mm
03:10 PM 56.2°F13.4°C 49.8°F9.9°C 79% 5.8 mph S9.3 kmh S 5.8 mph9.3 kmh 29.86 in1011.2 mb - 0.00 in0.0 mm 0.00 in0.0 mm
03:20 PM 56.3°F13.5°C 49.2°F9.6°C 77% 9.2 mph SE14.8 kmh SE 11.5 mph18.5 kmh 29.86 in1011.2 mb - 0.00 in0.0 mm 0.00 in0.0 mm
03:30 PM 56.1°F13.4°C 49.0°F9.4°C 77% 6.9 mph SE11.1 kmh SE 11.5 mph18.5 kmh 29.86 in1011.2 mb - 0.00 in0.0 mm 0.00 in0.0 mm
03:40 PM 56.0°F13.3°C 49.5°F9.7°C 79% 8.1 mph SE13.0 kmh SE 10.4 mph16.7 kmh 29.86 in1011.2 mb - 0.00 in0.0 mm 0.00 in0.0 mm
03:50 PM 57.6°F14.2°C 50.8°F10.4°C 78% 10.4 mph SE16.7 kmh SE 15.0 mph24.1 kmh 29.86 in1011.2 mb - 0.00 in0.0 mm 0.00 in0.0 mm
04:00 PM 57.2°F14.0°C 50.1°F10.1°C 77% 6.9 mph SE11.1 kmh SE 11.5 mph18.5 kmh 29.86 in1011.2 mb - 0.00 in0.0 mm 0.00 in0.0 mm
04:10 PM 56.7°F13.7°C 49.9°F9.9°C 78% 8.1 mph SE13.0 kmh SE 12.7 mph20.4 kmh 29.86 in1011.2 mb - 0.00 in0.0 mm 0.00 in0.0 mm
04:20 PM 57.4°F14.1°C 49.5°F9.7°C 75% 8.1 mph ESE13.0 kmh ESE 12.7 mph20.4 kmh 29.86 in1011.2 mb - 0.00 in0.0 mm 0.00 in0.0 mm
04:30 PM 56.7°F13.7°C 48.9°F9.4°C 75% 8.1 mph SE13.0 kmh SE 12.7 mph20.4 kmh 29.86 in1011.2 mb - 0.00 in0.0 mm 0.00 in0.0 mm
04:40 PM 55.7°F13.2°C 49.0°F9.4°C 78% 6.9 mph SE11.1 kmh SE 8.1 mph13.0 kmh 29.86 in1011.2 mb - 0.00 in0.0 mm 0.00 in0.0 mm
04:50 PM 55.2°F12.9°C 49.5°F9.7°C 81% 9.2 mph SE14.8 kmh SE 9.2 mph14.8 kmh 29.82 in1009.8 mb - 0.00 in0.0 mm 0.00 in0.0 mm
05:00 PM 55.6°F13.1°C 50.6°F10.3°C 83% 5.8 mph SE9.3 kmh SE 8.1 mph13.0 kmh 29.82 in1009.8 mb - 0.00 in0.0 mm 0.00 in0.0 mm
05:10 PM 56.1°F13.4°C 51.4°F10.8°C 84% 6.9 mph SSE11.1 kmh SSE 12.7 mph20.4 kmh 29.82 in1009.8 mb - 0.00 in0.0 mm 0.00 in0.0 mm
05:20 PM 56.1°F13.4°C 51.7°F10.9°C 85% 6.9 mph SE11.1 kmh SE 8.1 mph13.0 kmh 29.82 in1009.8 mb - 0.00 in0.0 mm 0.00 in0.0 mm
05:30 PM 56.3°F13.5°C 51.5°F10.8°C 84% 4.6 mph SE7.4 kmh SE 8.1 mph13.0 kmh 29.82 in1009.8 mb - 0.00 in0.0 mm 0.00 in0.0 mm
05:40 PM 55.9°F13.3°C 51.7°F10.9°C 86% 8.1 mph SSE13.0 kmh SSE 10.4 mph16.7 kmh 29.82 in1009.8 mb - 0.00 in0.0 mm 0.00 in0.0 mm
05:50 PM 55.7°F13.2°C 52.5°F11.4°C 89% 8.1 mph S13.0 kmh S 10.4 mph16.7 kmh 29.82 in1009.8 mb - 0.00 in0.0 mm 0.00 in0.0 mm
06:00 PM 55.2°F12.9°C 52.6°F11.4°C 91% 6.9 mph SSE11.1 kmh SSE 10.4 mph16.7 kmh 29.82 in1009.8 mb - 0.00 in0.0 mm 0.00 in0.0 mm
06:20 PM 54.5°F12.5°C 52.5°F11.4°C 93% 4.6 mph SE7.4 kmh SE 8.1 mph13.0 kmh 29.80 in1009.1 mb - 0.00 in0.0 mm 0.00 in0.0 mm
06:30 PM 54.1°F12.3°C 52.5°F11.4°C 94% 3.5 mph SE5.6 kmh SE 5.8 mph9.3 kmh 29.80 in1009.1 mb - 0.00 in0.0 mm 0.00 in0.0 mm
06:40 PM 54.1°F12.3°C 52.7°F11.5°C 95% 4.6 mph SE7.4 kmh SE 4.6 mph7.4 kmh 29.80 in1009.1 mb - 0.00 in0.0 mm 0.00 in0.0 mm
06:50 PM 54.1°F12.3°C 53.0°F11.7°C 96% 4.6 mph SSE7.4 kmh SSE 5.8 mph9.3 kmh 29.80 in1009.1 mb - 0.00 in0.0 mm 0.00 in0.0 mm
07:00 PM 54.1°F12.3°C 53.3°F11.8°C 97% 4.6 mph SSE7.4 kmh SSE 8.1 mph13.0 kmh 29.80 in1009.1 mb - 0.00 in0.0 mm 0.00 in0.0 mm
07:10 PM 54.0°F12.2°C 53.4°F11.9°C 98% 4.6 mph SE7.4 kmh SE 5.8 mph9.3 kmh 29.80 in1009.1 mb - 0.00 in0.0 mm 0.00 in0.0 mm
07:20 PM 54.1°F12.3°C 53.6°F12.0°C 98% 2.3 mph SE3.7 kmh SE 3.5 mph5.6 kmh 29.82 in1009.8 mb - 0.00 in0.0 mm 0.00 in0.0 mm
07:30 PM 54.1°F12.3°C 53.6°F12.0°C 98% 3.5 mph SSE5.6 kmh SSE 4.6 mph7.4 kmh 29.82 in1009.8 mb - 0.00 in0.0 mm 0.00 in0.0 mm
07:40 PM 54.3°F12.4°C 53.8°F12.1°C 98% 2.3 mph SSE3.7 kmh SSE 5.8 mph9.3 kmh 29.82 in1009.8 mb - 0.00 in0.0 mm 0.00 in0.0 mm
07:50 PM 54.3°F12.4°C 53.8°F12.1°C 98% 3.5 mph SE5.6 kmh SE 5.8 mph9.3 kmh 29.82 in1009.8 mb - 0.00 in0.0 mm 0.00 in0.0 mm
08:00 PM 54.3°F12.4°C 53.8°F12.1°C 98% 4.6 mph ESE7.4 kmh ESE 5.8 mph9.3 kmh 29.82 in1009.8 mb - 0.00 in0.0 mm 0.00 in0.0 mm
08:10 PM 54.3°F12.4°C 53.8°F12.1°C 98% 4.6 mph ESE7.4 kmh ESE 8.1 mph13.0 kmh 29.82 in1009.8 mb - 0.00 in0.0 mm 0.00 in0.0 mm
08:20 PM 54.5°F12.5°C 53.9°F12.2°C 98% 4.6 mph SE7.4 kmh SE 8.1 mph13.0 kmh 29.82 in1009.8 mb - 0.00 in0.0 mm 0.00 in0.0 mm
08:30 PM 54.5°F12.5°C 53.9°F12.2°C 98% 3.5 mph SE5.6 kmh SE 10.4 mph16.7 kmh 29.82 in1009.8 mb - 0.00 in0.0 mm 0.00 in0.0 mm
08:40 PM 54.5°F12.5°C 53.9°F12.2°C 98% 4.6 mph SE7.4 kmh SE 9.2 mph14.8 kmh 29.82 in1009.8 mb - 0.00 in0.0 mm 0.00 in0.0 mm
08:50 PM 54.9°F12.7°C 54.3°F12.4°C 98% 6.9 mph SE11.1 kmh SE 9.2 mph14.8 kmh 29.82 in1009.8 mb - 0.00 in0.0 mm 0.00 in0.0 mm
09:00 PM 55.0°F12.8°C 54.5°F12.5°C 98% 8.1 mph SE13.0 kmh SE 11.5 mph18.5 kmh 29.82 in1009.8 mb - 0.00 in0.0 mm 0.00 in0.0 mm
09:10 PM 55.0°F12.8°C 54.2°F12.3°C 97% 8.1 mph SE13.0 kmh SE 12.7 mph20.4 kmh 29.82 in1009.8 mb - 0.00 in0.0 mm 0.00 in0.0 mm
09:20 PM 54.9°F12.7°C 54.0°F12.2°C 97% 6.9 mph ESE11.1 kmh ESE 9.2 mph14.8 kmh 29.82 in1009.8 mb - 0.00 in0.0 mm 0.00 in0.0 mm
09:30 PM 54.9°F12.7°C 54.0°F12.2°C 97% 5.8 mph SE9.3 kmh SE 10.4 mph16.7 kmh 29.82 in1009.8 mb - 0.00 in0.0 mm 0.00 in0.0 mm
09:40 PM 54.9°F12.7°C 54.0°F12.2°C 97% 8.1 mph SE13.0 kmh SE 12.7 mph20.4 kmh 29.82 in1009.8 mb - 0.00 in0.0 mm 0.00 in0.0 mm
09:50 PM 54.9°F12.7°C 54.0°F12.2°C 97% 8.1 mph SE13.0 kmh SE 12.7 mph20.4 kmh 29.82 in1009.8 mb - 0.00 in0.0 mm 0.00 in0.0 mm
10:00 PM 54.9°F12.7°C 54.0°F12.2°C 97% 6.9 mph SE11.1 kmh SE 10.4 mph16.7 kmh 29.82 in1009.8 mb - 0.00 in0.0 mm 0.00 in0.0 mm
10:10 PM 54.9°F12.7°C 54.0°F12.2°C 97% 8.1 mph SE13.0 kmh SE 15.0 mph24.1 kmh 29.82 in1009.8 mb - 0.00 in0.0 mm 0.00 in0.0 mm
10:20 PM 54.9°F12.7°C 54.3°F12.4°C 98% 8.1 mph SE13.0 kmh SE 11.5 mph18.5 kmh 29.80 in1009.1 mb - 0.00 in0.0 mm 0.00 in0.0 mm
10:30 PM 54.9°F12.7°C 54.3°F12.4°C 98% 8.1 mph SE13.0 kmh SE 11.5 mph18.5 kmh 29.82 in1009.8 mb - 0.00 in0.0 mm 0.00 in0.0 mm
10:40 PM 54.7°F12.6°C 54.1°F12.3°C 98% 6.9 mph SE11.1 kmh SE 10.4 mph16.7 kmh 29.82 in1009.8 mb - 0.00 in0.0 mm 0.00 in0.0 mm
10:50 PM 54.7°F12.6°C 54.1°F12.3°C 98% 5.8 mph SE9.3 kmh SE 8.1 mph13.0 kmh 29.80 in1009.1 mb - 0.00 in0.0 mm 0.00 in0.0 mm
11:00 PM 54.5°F12.5°C 53.9°F12.2°C 98% 5.8 mph SE9.3 kmh SE 8.1 mph13.0 kmh 29.80 in1009.1 mb - 0.00 in0.0 mm 0.00 in0.0 mm
11:10 PM 54.5°F12.5°C 53.9°F12.2°C 98% 8.1 mph ESE13.0 kmh ESE 11.5 mph18.5 kmh 29.80 in1009.1 mb - 0.00 in0.0 mm 0.00 in0.0 mm
11:20 PM 54.5°F12.5°C 53.9°F12.2°C 98% 8.1 mph SE13.0 kmh SE 13.8 mph22.2 kmh 29.80 in1009.1 mb - 0.00 in0.0 mm 0.00 in0.0 mm
11:30 PM 54.5°F12.5°C 53.9°F12.2°C 98% 8.1 mph SSE13.0 kmh SSE 11.5 mph18.5 kmh 29.80 in1009.1 mb - 0.00 in0.0 mm 0.00 in0.0 mm
11:40 PM 54.5°F12.5°C 53.9°F12.2°C 98% 5.8 mph ESE9.3 kmh ESE 8.1 mph13.0 kmh 29.80 in1009.1 mb - 0.00 in0.0 mm 0.00 in0.0 mm
11:50 PM 54.5°F12.5°C 53.9°F12.2°C 98% 4.6 mph SE7.4 kmh SE 9.2 mph14.8 kmh 29.80 in1009.1 mb - 0.00 in0.0 mm 0.00 in0.0 mm